N4RS KASE-KSNA
Flight info
| Callsign | N4RS |
|---|---|
| Flight time | 1h 55m |
| Altitude | 40000 |
| Route | LINDZ JNC HVE J60 BLD NATEE DSNEE6 |
| Aircraft | E55P/M-SDGRWY/L |
Departure
| Time | 2026-04-22 01:40 |
|---|---|
| Airport | Aspen-Pitkin County Airport (Sardy Field) (KASE) |
Arrival
| Time | 2026-04-22 03:35 |
|---|---|
| Airport | John Wayne Orange County International Airport (KSNA) |
| Time | Latitude | Longitude | Altitude | Speed | Heading |
|---|---|---|---|---|---|
| 2026-04-22 01:17 | 39.22202 | -106.86540 | 7800 ft | 0 kts | 244° |
| 2026-04-22 01:35 | 39.22202 | -106.86541 | 7799 ft | 0 kts | 244° |
| 2026-04-22 01:35 | 39.22192 | -106.86567 | 7800 ft | 6 kts | 244° |
| 2026-04-22 01:35 | 39.22163 | -106.86620 | 7801 ft | 6 kts | 217° |
| 2026-04-22 01:36 | 39.22120 | -106.86642 | 7804 ft | 7 kts | 193° |
| 2026-04-22 01:36 | 39.22058 | -106.86637 | 7810 ft | 10 kts | 161° |
| 2026-04-22 01:36 | 39.21992 | -106.86607 | 7816 ft | 10 kts | 160° |
| 2026-04-22 01:36 | 39.21916 | -106.86570 | 7822 ft | 12 kts | 157° |
| 2026-04-22 01:37 | 39.21811 | -106.86521 | 7831 ft | 19 kts | 160° |
| 2026-04-22 01:37 | 39.21694 | -106.86465 | 7840 ft | 17 kts | 161° |
| 2026-04-22 01:37 | 39.21573 | -106.86407 | 7847 ft | 19 kts | 160° |
| 2026-04-22 01:37 | 39.21442 | -106.86345 | 7855 ft | 20 kts | 160° |
| 2026-04-22 01:38 | 39.21301 | -106.86279 | 7863 ft | 22 kts | 160° |
| 2026-04-22 01:38 | 39.21223 | -106.86245 | 7866 ft | 7 kts | 178° |
| 2026-04-22 01:38 | 39.21184 | -106.86284 | 7870 ft | 7 kts | 255° |
| 2026-04-22 01:38 | 39.21201 | -106.86350 | 7872 ft | 9 kts | 328° |
| 2026-04-22 01:39 | 39.21227 | -106.86365 | 7871 ft | 4 kts | 339° |
| 2026-04-22 01:39 | 39.21487 | -106.86490 | 7857 ft | 76 kts | 338° |
| 2026-04-22 01:39 | 39.22190 | -106.86825 | 7796 ft | 138 kts | 340° |
| 2026-04-22 01:39 | 39.23195 | -106.87289 | 7947 ft | 165 kts | 338° |
| 2026-04-22 01:40 | 39.24332 | -106.87832 | 8322 ft | 185 kts | 339° |
| 2026-04-22 01:40 | 39.25589 | -106.88317 | 8938 ft | 193 kts | 351° |
| 2026-04-22 01:40 | 39.26923 | -106.88585 | 9580 ft | 199 kts | 347° |
| 2026-04-22 01:40 | 39.28136 | -106.89493 | 10006 ft | 216 kts | 307° |
| 2026-04-22 01:41 | 39.28715 | -106.91334 | 10462 ft | 230 kts | 281° |
| 2026-04-22 01:41 | 39.29101 | -106.93486 | 10677 ft | 261 kts | 281° |
| 2026-04-22 01:41 | 39.29521 | -106.95826 | 11244 ft | 274 kts | 281° |
| 2026-04-22 01:41 | 39.29946 | -106.98172 | 12195 ft | 269 kts | 281° |
| 2026-04-22 01:42 | 39.30373 | -107.00484 | 13112 ft | 266 kts | 281° |
| 2026-04-22 01:42 | 39.30806 | -107.02798 | 13906 ft | 268 kts | 281° |
| 2026-04-22 01:42 | 39.31512 | -107.05000 | 14574 ft | 279 kts | 303° |
| 2026-04-22 01:42 | 39.32741 | -107.06978 | 15309 ft | 285 kts | 308° |
| 2026-04-22 01:43 | 39.34041 | -107.08890 | 16063 ft | 289 kts | 309° |
| 2026-04-22 01:43 | 39.35400 | -107.10834 | 16779 ft | 293 kts | 310° |
| 2026-04-22 01:43 | 39.36767 | -107.12785 | 17453 ft | 299 kts | 310° |
| 2026-04-22 01:43 | 39.38084 | -107.14880 | 18115 ft | 301 kts | 294° |
| 2026-04-22 01:44 | 39.38532 | -107.17436 | 18833 ft | 294 kts | 263° |
| 2026-04-22 01:44 | 39.38074 | -107.19933 | 19615 ft | 290 kts | 251° |
| 2026-04-22 01:44 | 39.37587 | -107.22458 | 20395 ft | 292 kts | 252° |
| 2026-04-22 01:44 | 39.37089 | -107.24984 | 21113 ft | 295 kts | 253° |
| 2026-04-22 01:45 | 39.36593 | -107.27556 | 21833 ft | 298 kts | 253° |
| 2026-04-22 01:45 | 39.36092 | -107.30128 | 22580 ft | 299 kts | 253° |
| 2026-04-22 01:45 | 39.35582 | -107.32733 | 23294 ft | 301 kts | 253° |
| 2026-04-22 01:45 | 39.35069 | -107.35368 | 24002 ft | 304 kts | 253° |
| 2026-04-22 01:46 | 39.34556 | -107.37991 | 24660 ft | 307 kts | 252° |
| 2026-04-22 01:46 | 39.34031 | -107.40678 | 25298 ft | 310 kts | 253° |
| 2026-04-22 01:46 | 39.33500 | -107.43384 | 25952 ft | 312 kts | 252° |
| 2026-04-22 01:46 | 39.32973 | -107.46069 | 26605 ft | 314 kts | 252° |
| 2026-04-22 01:47 | 39.32441 | -107.48789 | 27241 ft | 315 kts | 252° |
| 2026-04-22 01:47 | 39.31895 | -107.51540 | 27848 ft | 317 kts | 252° |
| 2026-04-22 01:47 | 39.31354 | -107.54295 | 28410 ft | 320 kts | 252° |
| 2026-04-22 01:47 | 39.30803 | -107.57082 | 28980 ft | 323 kts | 253° |
| 2026-04-22 01:48 | 39.30250 | -107.59875 | 29527 ft | 325 kts | 252° |
| 2026-04-22 01:48 | 39.29691 | -107.62708 | 30092 ft | 326 kts | 252° |
| 2026-04-22 01:48 | 39.29121 | -107.65571 | 30597 ft | 328 kts | 252° |
| 2026-04-22 01:48 | 39.28556 | -107.68424 | 31155 ft | 329 kts | 252° |
| 2026-04-22 01:49 | 39.27981 | -107.71310 | 31715 ft | 329 kts | 252° |
| 2026-04-22 01:49 | 39.27417 | -107.74152 | 32322 ft | 327 kts | 252° |
| 2026-04-22 01:49 | 39.26852 | -107.76982 | 32980 ft | 323 kts | 252° |
| 2026-04-22 01:49 | 39.26299 | -107.79757 | 33561 ft | 321 kts | 252° |
| 2026-04-22 01:50 | 39.25740 | -107.82548 | 34136 ft | 320 kts | 253° |
| 2026-04-22 01:50 | 39.25194 | -107.85300 | 34728 ft | 319 kts | 252° |
| 2026-04-22 01:50 | 39.24641 | -107.88060 | 35347 ft | 318 kts | 252° |
| 2026-04-22 01:50 | 39.24091 | -107.90810 | 35972 ft | 316 kts | 252° |
| 2026-04-22 01:51 | 39.23537 | -107.93549 | 36528 ft | 316 kts | 252° |
| 2026-04-22 01:51 | 39.22995 | -107.96255 | 37066 ft | 316 kts | 252° |
| 2026-04-22 01:51 | 39.22441 | -107.99007 | 37624 ft | 316 kts | 252° |
| 2026-04-22 01:51 | 39.21894 | -108.01713 | 38136 ft | 316 kts | 252° |
| 2026-04-22 01:52 | 39.21341 | -108.04457 | 38627 ft | 316 kts | 252° |
| 2026-04-22 01:52 | 39.20788 | -108.07188 | 39127 ft | 316 kts | 252° |
| 2026-04-22 01:52 | 39.20233 | -108.09927 | 39606 ft | 316 kts | 252° |
| 2026-04-22 01:52 | 39.19682 | -108.12655 | 40062 ft | 316 kts | 252° |
| 2026-04-22 01:53 | 39.19116 | -108.15427 | 40210 ft | 325 kts | 252° |
| 2026-04-22 01:53 | 39.18539 | -108.18259 | 40230 ft | 336 kts | 252° |
| 2026-04-22 01:53 | 39.17933 | -108.21233 | 40230 ft | 347 kts | 252° |
| 2026-04-22 01:53 | 39.17319 | -108.24255 | 40226 ft | 358 kts | 252° |
| 2026-04-22 01:54 | 39.16677 | -108.27398 | 40214 ft | 369 kts | 252° |
| 2026-04-22 01:54 | 39.16012 | -108.30653 | 40198 ft | 379 kts | 252° |
| 2026-04-22 01:54 | 39.15335 | -108.33958 | 40188 ft | 390 kts | 252° |
| 2026-04-22 01:54 | 39.14638 | -108.37358 | 40148 ft | 397 kts | 252° |
| 2026-04-22 01:55 | 39.13226 | -108.44233 | 40127 ft | 403 kts | 252° |
| 2026-04-22 01:55 | 39.11771 | -108.51281 | 40121 ft | 409 kts | 252° |
| 2026-04-22 01:56 | 39.10306 | -108.58364 | 40109 ft | 414 kts | 252° |
| 2026-04-22 01:56 | 39.08831 | -108.65475 | 40104 ft | 408 kts | 252° |
| 2026-04-22 01:57 | 39.07365 | -108.72509 | 40141 ft | 407 kts | 252° |
| 2026-04-22 01:57 | 39.05868 | -108.79497 | 40153 ft | 405 kts | 247° |
| 2026-04-22 01:58 | 39.03719 | -108.86108 | 40142 ft | 403 kts | 244° |
| 2026-04-22 01:58 | 39.01560 | -108.92707 | 40153 ft | 401 kts | 244° |
| 2026-04-22 01:59 | 38.99388 | -108.99335 | 40151 ft | 401 kts | 244° |
| 2026-04-22 01:59 | 38.97214 | -109.05934 | 40145 ft | 403 kts | 244° |
| 2026-04-22 02:00 | 38.95035 | -109.12550 | 40122 ft | 403 kts | 244° |
| 2026-04-22 02:00 | 38.92872 | -109.19110 | 40109 ft | 400 kts | 244° |
| 2026-04-22 02:01 | 38.90722 | -109.25608 | 40107 ft | 397 kts | 244° |
| 2026-04-22 02:01 | 38.88554 | -109.32140 | 40127 ft | 399 kts | 245° |
| 2026-04-22 02:02 | 38.86369 | -109.38717 | 40112 ft | 403 kts | 244° |
| 2026-04-22 02:02 | 38.84185 | -109.45274 | 40114 ft | 402 kts | 244° |
| 2026-04-22 02:03 | 38.81996 | -109.51831 | 40107 ft | 398 kts | 244° |
| 2026-04-22 02:03 | 38.79832 | -109.58289 | 40065 ft | 395 kts | 244° |
| 2026-04-22 02:04 | 38.76573 | -109.67999 | 40025 ft | 397 kts | 244° |
| 2026-04-22 02:05 | 38.74388 | -109.74490 | 40012 ft | 399 kts | 244° |
| 2026-04-22 02:05 | 38.72200 | -109.80978 | 40032 ft | 398 kts | 244° |
| 2026-04-22 02:06 | 38.70004 | -109.87474 | 40034 ft | 395 kts | 244° |
| 2026-04-22 02:06 | 38.67831 | -109.93882 | 40052 ft | 392 kts | 244° |
| 2026-04-22 02:07 | 38.65675 | -110.00232 | 40058 ft | 392 kts | 244° |
| 2026-04-22 02:07 | 38.63493 | -110.06644 | 40057 ft | 395 kts | 244° |
| 2026-04-22 02:08 | 38.61308 | -110.13047 | 40071 ft | 397 kts | 244° |
| 2026-04-22 02:08 | 38.59097 | -110.19522 | 40076 ft | 396 kts | 244° |
| 2026-04-22 02:09 | 38.56904 | -110.25921 | 40073 ft | 392 kts | 244° |
| 2026-04-22 02:09 | 38.54718 | -110.32275 | 40088 ft | 391 kts | 244° |
| 2026-04-22 02:10 | 38.52529 | -110.38648 | 40106 ft | 393 kts | 244° |
| 2026-04-22 02:10 | 38.50328 | -110.45022 | 40091 ft | 395 kts | 244° |
| 2026-04-22 02:11 | 38.48126 | -110.51394 | 40069 ft | 394 kts | 244° |
| 2026-04-22 02:11 | 38.45926 | -110.57743 | 40046 ft | 392 kts | 244° |
| 2026-04-22 02:12 | 38.43723 | -110.64093 | 40034 ft | 391 kts | 243° |
| 2026-04-22 02:12 | 38.41488 | -110.70394 | 40027 ft | 392 kts | 240° |
| 2026-04-22 02:13 | 38.38830 | -110.76405 | 40020 ft | 392 kts | 238° |
| 2026-04-22 02:13 | 38.36157 | -110.82429 | 40033 ft | 391 kts | 238° |
| 2026-04-22 02:14 | 38.33497 | -110.88410 | 40062 ft | 389 kts | 238° |
| 2026-04-22 02:14 | 38.30825 | -110.94411 | 40063 ft | 390 kts | 238° |
| 2026-04-22 02:15 | 38.28153 | -111.00401 | 40089 ft | 391 kts | 238° |
| 2026-04-22 02:15 | 38.25461 | -111.06417 | 40087 ft | 392 kts | 238° |
| 2026-04-22 02:16 | 38.22776 | -111.12422 | 40101 ft | 389 kts | 238° |
| 2026-04-22 02:16 | 38.20131 | -111.18319 | 40132 ft | 385 kts | 238° |
| 2026-04-22 02:17 | 38.17477 | -111.24218 | 40144 ft | 386 kts | 238° |
| 2026-04-22 02:17 | 38.14798 | -111.30170 | 40142 ft | 390 kts | 238° |
| 2026-04-22 02:18 | 38.12100 | -111.36144 | 40156 ft | 390 kts | 238° |
| 2026-04-22 02:18 | 38.09438 | -111.42037 | 40162 ft | 385 kts | 238° |
| 2026-04-22 02:19 | 38.06793 | -111.47883 | 40179 ft | 382 kts | 237° |
| 2026-04-22 02:19 | 38.04142 | -111.53722 | 40192 ft | 385 kts | 238° |
| 2026-04-22 02:20 | 38.01458 | -111.59627 | 40191 ft | 389 kts | 237° |
| 2026-04-22 02:20 | 37.98750 | -111.65577 | 40211 ft | 389 kts | 237° |
| 2026-04-22 02:21 | 37.96072 | -111.71447 | 40210 ft | 385 kts | 237° |
| 2026-04-22 02:21 | 37.93411 | -111.77277 | 40208 ft | 380 kts | 237° |
| 2026-04-22 02:22 | 37.90766 | -111.83046 | 40209 ft | 380 kts | 237° |
| 2026-04-22 02:22 | 37.88121 | -111.88805 | 40220 ft | 383 kts | 237° |
| 2026-04-22 02:23 | 37.85435 | -111.94662 | 40213 ft | 384 kts | 237° |
| 2026-04-22 02:23 | 37.82778 | -112.00427 | 40199 ft | 380 kts | 237° |
| 2026-04-22 02:24 | 37.80134 | -112.06168 | 40188 ft | 374 kts | 237° |
| 2026-04-22 02:24 | 37.77531 | -112.11807 | 40175 ft | 374 kts | 237° |
| 2026-04-22 02:25 | 37.74894 | -112.17503 | 40172 ft | 379 kts | 237° |
| 2026-04-22 02:25 | 37.72230 | -112.23253 | 40168 ft | 382 kts | 237° |
| 2026-04-22 02:26 | 37.69556 | -112.29005 | 40164 ft | 379 kts | 237° |
| 2026-04-22 02:26 | 37.66447 | -112.34246 | 40158 ft | 370 kts | 230° |
| 2026-04-22 02:27 | 37.63267 | -112.39247 | 40171 ft | 367 kts | 230° |
| 2026-04-22 02:27 | 37.60041 | -112.44299 | 40166 ft | 372 kts | 230° |
| 2026-04-22 02:28 | 37.56771 | -112.49414 | 40160 ft | 377 kts | 230° |
| 2026-04-22 02:28 | 37.53515 | -112.54499 | 40148 ft | 374 kts | 230° |
| 2026-04-22 02:29 | 37.50267 | -112.59553 | 40144 ft | 365 kts | 230° |
| 2026-04-22 02:29 | 37.47113 | -112.64462 | 40144 ft | 361 kts | 230° |
| 2026-04-22 02:30 | 37.43943 | -112.69394 | 40143 ft | 367 kts | 229° |
| 2026-04-22 02:30 | 37.40717 | -112.74394 | 40139 ft | 373 kts | 229° |
| 2026-04-22 02:31 | 37.37446 | -112.79468 | 40124 ft | 370 kts | 229° |
| 2026-04-22 02:31 | 37.34237 | -112.84431 | 40113 ft | 362 kts | 229° |
| 2026-04-22 02:32 | 37.31103 | -112.89275 | 40112 ft | 356 kts | 229° |
| 2026-04-22 02:32 | 37.27979 | -112.94087 | 40100 ft | 361 kts | 229° |
| 2026-04-22 02:33 | 37.24768 | -112.99033 | 40106 ft | 368 kts | 229° |
| 2026-04-22 02:33 | 37.21526 | -113.04013 | 40080 ft | 369 kts | 229° |
| 2026-04-22 02:34 | 37.18330 | -113.08930 | 40064 ft | 362 kts | 229° |
| 2026-04-22 02:34 | 37.15187 | -113.13749 | 40057 ft | 355 kts | 229° |
| 2026-04-22 02:35 | 37.12038 | -113.18566 | 40046 ft | 360 kts | 229° |
| 2026-04-22 02:35 | 37.08841 | -113.23449 | 40033 ft | 369 kts | 230° |
| 2026-04-22 02:36 | 37.05575 | -113.28439 | 39991 ft | 370 kts | 229° |
| 2026-04-22 02:36 | 37.02348 | -113.33363 | 39992 ft | 362 kts | 230° |
| 2026-04-22 02:37 | 36.99192 | -113.38166 | 39956 ft | 358 kts | 230° |
| 2026-04-22 02:37 | 36.96015 | -113.42994 | 39955 ft | 361 kts | 230° |
| 2026-04-22 02:38 | 36.92818 | -113.47840 | 39950 ft | 368 kts | 230° |
| 2026-04-22 02:38 | 36.89558 | -113.52784 | 39957 ft | 369 kts | 230° |
| 2026-04-22 02:39 | 36.86303 | -113.57710 | 39967 ft | 365 kts | 230° |
| 2026-04-22 02:39 | 36.83082 | -113.62575 | 40002 ft | 362 kts | 230° |
| 2026-04-22 02:40 | 36.79877 | -113.67411 | 40032 ft | 365 kts | 230° |
| 2026-04-22 02:40 | 36.76639 | -113.72299 | 40033 ft | 371 kts | 230° |
| 2026-04-22 02:41 | 36.73328 | -113.77271 | 40012 ft | 371 kts | 230° |
| 2026-04-22 02:41 | 36.70060 | -113.82179 | 39978 ft | 366 kts | 230° |
| 2026-04-22 02:42 | 36.66843 | -113.87008 | 39962 ft | 362 kts | 230° |
| 2026-04-22 02:42 | 36.63643 | -113.91800 | 39953 ft | 363 kts | 230° |
| 2026-04-22 02:43 | 36.60382 | -113.96680 | 39931 ft | 371 kts | 230° |
| 2026-04-22 02:43 | 36.57058 | -114.01642 | 39938 ft | 374 kts | 230° |
| 2026-04-22 02:44 | 36.53766 | -114.06549 | 39926 ft | 369 kts | 230° |
| 2026-04-22 02:44 | 36.50508 | -114.11401 | 39925 ft | 362 kts | 230° |
| 2026-04-22 02:45 | 36.47297 | -114.16176 | 39910 ft | 362 kts | 230° |
| 2026-04-22 02:45 | 36.44041 | -114.21008 | 39915 ft | 369 kts | 231° |
| 2026-04-22 02:46 | 36.40723 | -114.25932 | 39911 ft | 374 kts | 230° |
| 2026-04-22 02:46 | 36.37394 | -114.30857 | 39914 ft | 370 kts | 231° |
| 2026-04-22 02:47 | 36.34139 | -114.35669 | 39914 ft | 362 kts | 230° |
| 2026-04-22 02:47 | 36.30924 | -114.40416 | 39923 ft | 360 kts | 231° |
| 2026-04-22 02:48 | 36.27683 | -114.45197 | 39920 ft | 367 kts | 231° |
| 2026-04-22 02:48 | 36.24373 | -114.50063 | 39912 ft | 371 kts | 231° |
| 2026-04-22 02:49 | 36.21079 | -114.54910 | 39905 ft | 366 kts | 231° |
| 2026-04-22 02:49 | 36.17829 | -114.59683 | 39898 ft | 359 kts | 231° |
| 2026-04-22 02:50 | 36.14626 | -114.64377 | 39903 ft | 359 kts | 231° |
| 2026-04-22 02:50 | 36.11371 | -114.69138 | 39907 ft | 369 kts | 231° |
| 2026-04-22 02:51 | 36.08033 | -114.74025 | 39894 ft | 372 kts | 231° |
| 2026-04-22 02:51 | 36.04726 | -114.78841 | 39891 ft | 365 kts | 231° |
| 2026-04-22 02:52 | 36.01482 | -114.83577 | 39889 ft | 357 kts | 231° |
| 2026-04-22 02:52 | 35.98262 | -114.88223 | 39899 ft | 358 kts | 229° |
| 2026-04-22 02:53 | 35.94883 | -114.92785 | 39904 ft | 368 kts | 230° |
| 2026-04-22 02:53 | 35.91437 | -114.97485 | 39911 ft | 371 kts | 230° |
| 2026-04-22 02:54 | 35.87984 | -115.02193 | 39911 ft | 364 kts | 230° |
| 2026-04-22 02:54 | 35.84639 | -115.06757 | 39924 ft | 356 kts | 230° |
| 2026-04-22 02:55 | 35.81338 | -115.11257 | 39923 ft | 359 kts | 230° |
| 2026-04-22 02:55 | 35.77919 | -115.15901 | 39944 ft | 369 kts | 230° |
| 2026-04-22 02:56 | 35.74468 | -115.20579 | 39912 ft | 372 kts | 230° |
| 2026-04-22 02:56 | 35.71025 | -115.25254 | 39937 ft | 364 kts | 230° |
| 2026-04-22 02:57 | 35.67658 | -115.29808 | 39936 ft | 358 kts | 230° |
| 2026-04-22 02:57 | 35.64291 | -115.34355 | 39938 ft | 363 kts | 230° |
| 2026-04-22 02:58 | 35.60856 | -115.38995 | 39955 ft | 373 kts | 230° |
| 2026-04-22 02:58 | 35.57377 | -115.43697 | 39960 ft | 374 kts | 230° |
| 2026-04-22 02:59 | 35.53898 | -115.48378 | 39962 ft | 367 kts | 230° |
| 2026-04-22 02:59 | 35.50497 | -115.52951 | 39969 ft | 361 kts | 229° |
| 2026-04-22 03:00 | 35.47092 | -115.57519 | 39988 ft | 368 kts | 230° |
| 2026-04-22 03:00 | 35.43589 | -115.62221 | 39978 ft | 376 kts | 230° |
| 2026-04-22 03:01 | 35.40079 | -115.66919 | 39991 ft | 374 kts | 229° |
| 2026-04-22 03:01 | 35.36609 | -115.71558 | 39977 ft | 365 kts | 229° |
| 2026-04-22 03:02 | 35.33208 | -115.76103 | 39983 ft | 360 kts | 229° |
| 2026-04-22 03:02 | 35.29828 | -115.80615 | 39985 ft | 366 kts | 229° |
| 2026-04-22 03:03 | 35.26320 | -115.85278 | 39973 ft | 375 kts | 229° |
| 2026-04-22 03:03 | 35.22822 | -115.89935 | 39982 ft | 373 kts | 229° |
| 2026-04-22 03:04 | 35.19248 | -115.94464 | 39973 ft | 366 kts | 228° |
| 2026-04-22 03:04 | 35.15723 | -115.98907 | 39965 ft | 362 kts | 228° |
| 2026-04-22 03:05 | 35.12232 | -116.03307 | 39967 ft | 366 kts | 228° |
| 2026-04-22 03:05 | 35.08655 | -116.07812 | 39978 ft | 373 kts | 228° |
| 2026-04-22 03:06 | 35.05034 | -116.12359 | 39953 ft | 372 kts | 229° |
| 2026-04-22 03:06 | 35.01502 | -116.16795 | 39860 ft | 347 kts | 229° |
| 2026-04-22 03:06 | 34.99859 | -116.18858 | 39522 ft | 333 kts | 229° |
| 2026-04-22 03:07 | 34.98282 | -116.20830 | 39065 ft | 324 kts | 229° |
| 2026-04-22 03:07 | 34.96724 | -116.22791 | 38203 ft | 324 kts | 228° |
| 2026-04-22 03:07 | 34.95147 | -116.24764 | 37360 ft | 324 kts | 228° |
| 2026-04-22 03:07 | 34.93596 | -116.26706 | 36500 ft | 323 kts | 229° |
| 2026-04-22 03:08 | 34.92033 | -116.28655 | 35660 ft | 321 kts | 229° |
| 2026-04-22 03:08 | 34.90505 | -116.30568 | 34850 ft | 320 kts | 229° |
| 2026-04-22 03:08 | 34.88949 | -116.32516 | 34034 ft | 317 kts | 228° |
| 2026-04-22 03:08 | 34.87430 | -116.34428 | 33320 ft | 313 kts | 229° |
| 2026-04-22 03:09 | 34.85954 | -116.36314 | 32864 ft | 303 kts | 229° |
| 2026-04-22 03:09 | 34.84537 | -116.38117 | 32403 ft | 294 kts | 229° |
| 2026-04-22 03:09 | 34.83143 | -116.39897 | 31937 ft | 286 kts | 229° |
| 2026-04-22 03:09 | 34.81794 | -116.41619 | 31473 ft | 279 kts | 229° |
| 2026-04-22 03:10 | 34.80462 | -116.43306 | 31007 ft | 273 kts | 230° |
| 2026-04-22 03:10 | 34.79179 | -116.44951 | 30547 ft | 269 kts | 230° |
| 2026-04-22 03:10 | 34.77860 | -116.46629 | 30099 ft | 280 kts | 230° |
| 2026-04-22 03:10 | 34.76492 | -116.48361 | 29647 ft | 292 kts | 230° |
| 2026-04-22 03:11 | 34.75071 | -116.50175 | 29184 ft | 302 kts | 230° |
| 2026-04-22 03:11 | 34.73595 | -116.52052 | 28720 ft | 310 kts | 230° |
| 2026-04-22 03:11 | 34.72102 | -116.53947 | 28398 ft | 316 kts | 230° |
| 2026-04-22 03:11 | 34.70541 | -116.55924 | 28140 ft | 329 kts | 229° |
| 2026-04-22 03:12 | 34.68930 | -116.57954 | 27882 ft | 343 kts | 229° |
| 2026-04-22 03:12 | 34.65205 | -116.61950 | 27134 ft | 364 kts | 225° |
| 2026-04-22 03:12 | 34.63358 | -116.63935 | 26554 ft | 354 kts | 225° |
| 2026-04-22 03:13 | 34.61511 | -116.65938 | 25979 ft | 353 kts | 225° |
| 2026-04-22 03:13 | 34.59682 | -116.67911 | 25415 ft | 351 kts | 225° |
| 2026-04-22 03:13 | 34.57872 | -116.69866 | 24854 ft | 349 kts | 225° |
| 2026-04-22 03:13 | 34.56066 | -116.71815 | 24291 ft | 346 kts | 225° |
| 2026-04-22 03:14 | 34.54280 | -116.73752 | 23734 ft | 344 kts | 225° |
| 2026-04-22 03:14 | 34.52517 | -116.75648 | 23183 ft | 341 kts | 225° |
| 2026-04-22 03:14 | 34.50756 | -116.77549 | 22635 ft | 339 kts | 225° |
| 2026-04-22 03:14 | 34.49013 | -116.79427 | 22091 ft | 336 kts | 225° |
| 2026-04-22 03:15 | 34.47263 | -116.81313 | 21542 ft | 333 kts | 225° |
| 2026-04-22 03:15 | 34.45546 | -116.83163 | 21000 ft | 331 kts | 225° |
| 2026-04-22 03:15 | 34.43842 | -116.85000 | 20464 ft | 328 kts | 225° |
| 2026-04-22 03:15 | 34.42146 | -116.86819 | 19929 ft | 326 kts | 225° |
| 2026-04-22 03:16 | 34.40449 | -116.88641 | 19393 ft | 324 kts | 226° |
| 2026-04-22 03:16 | 34.38792 | -116.90426 | 18864 ft | 322 kts | 225° |
| 2026-04-22 03:16 | 34.37108 | -116.92236 | 18332 ft | 320 kts | 225° |
| 2026-04-22 03:16 | 34.35458 | -116.93999 | 17897 ft | 318 kts | 226° |
| 2026-04-22 03:17 | 34.33817 | -116.95764 | 17484 ft | 317 kts | 226° |
| 2026-04-22 03:17 | 34.32158 | -116.97538 | 17064 ft | 316 kts | 226° |
| 2026-04-22 03:17 | 34.30516 | -116.99302 | 16639 ft | 314 kts | 225° |
| 2026-04-22 03:17 | 34.28888 | -117.01048 | 16199 ft | 313 kts | 225° |
| 2026-04-22 03:18 | 34.27282 | -117.02753 | 15639 ft | 310 kts | 224° |
| 2026-04-22 03:18 | 34.25520 | -117.04260 | 15084 ft | 311 kts | 214° |
| 2026-04-22 03:18 | 34.23663 | -117.05557 | 14529 ft | 308 kts | 215° |
| 2026-04-22 03:18 | 34.21833 | -117.06873 | 13981 ft | 306 kts | 215° |
| 2026-04-22 03:19 | 34.20009 | -117.08182 | 13564 ft | 302 kts | 215° |
| 2026-04-22 03:19 | 34.18228 | -117.09468 | 13169 ft | 300 kts | 215° |
| 2026-04-22 03:19 | 34.16391 | -117.10674 | 12753 ft | 301 kts | 209° |
| 2026-04-22 03:19 | 34.14437 | -117.11633 | 12339 ft | 299 kts | 210° |
| 2026-04-22 03:20 | 34.12696 | -117.12926 | 12010 ft | 292 kts | 221° |
| 2026-04-22 03:20 | 34.11252 | -117.14583 | 11965 ft | 285 kts | 228° |
| 2026-04-22 03:20 | 34.09840 | -117.16274 | 11951 ft | 285 kts | 227° |
| 2026-04-22 03:20 | 34.08429 | -117.17956 | 11954 ft | 289 kts | 227° |
| 2026-04-22 03:21 | 34.06967 | -117.19704 | 11989 ft | 296 kts | 227° |
| 2026-04-22 03:21 | 34.05492 | -117.21452 | 11982 ft | 301 kts | 227° |
| 2026-04-22 03:21 | 34.03988 | -117.23238 | 11977 ft | 307 kts | 227° |
| 2026-04-22 03:21 | 34.02463 | -117.25043 | 11971 ft | 300 kts | 227° |
| 2026-04-22 03:22 | 34.01001 | -117.26779 | 11970 ft | 294 kts | 227° |
| 2026-04-22 03:22 | 33.99532 | -117.28517 | 11682 ft | 295 kts | 227° |
| 2026-04-22 03:22 | 33.98093 | -117.30215 | 11342 ft | 286 kts | 227° |
| 2026-04-22 03:22 | 33.96704 | -117.31857 | 10972 ft | 269 kts | 227° |
| 2026-04-22 03:23 | 33.95422 | -117.33375 | 10613 ft | 260 kts | 227° |
| 2026-04-22 03:23 | 33.94143 | -117.34888 | 10268 ft | 255 kts | 227° |
| 2026-04-22 03:23 | 33.92878 | -117.36382 | 9912 ft | 251 kts | 227° |
| 2026-04-22 03:23 | 33.91649 | -117.37837 | 9607 ft | 246 kts | 227° |
| 2026-04-22 03:24 | 33.90408 | -117.39301 | 9303 ft | 251 kts | 227° |
| 2026-04-22 03:24 | 33.89153 | -117.40785 | 9009 ft | 255 kts | 227° |
| 2026-04-22 03:24 | 33.87894 | -117.42271 | 8717 ft | 258 kts | 227° |
| 2026-04-22 03:24 | 33.86625 | -117.43765 | 8416 ft | 250 kts | 227° |
| 2026-04-22 03:25 | 33.85406 | -117.45199 | 8104 ft | 239 kts | 227° |
| 2026-04-22 03:25 | 33.84259 | -117.46552 | 7985 ft | 221 kts | 227° |
| 2026-04-22 03:25 | 33.83206 | -117.47784 | 7964 ft | 203 kts | 228° |
| 2026-04-22 03:25 | 33.82227 | -117.48940 | 7963 ft | 191 kts | 227° |
| 2026-04-22 03:26 | 33.81279 | -117.50065 | 7980 ft | 192 kts | 229° |
| 2026-04-22 03:26 | 33.80518 | -117.51369 | 7982 ft | 189 kts | 246° |
| 2026-04-22 03:26 | 33.80162 | -117.52874 | 7984 ft | 189 kts | 263° |
| 2026-04-22 03:26 | 33.80214 | -117.54440 | 7986 ft | 191 kts | 279° |
| 2026-04-22 03:27 | 33.80683 | -117.55972 | 7818 ft | 201 kts | 292° |
| 2026-04-22 03:27 | 33.81256 | -117.57503 | 7484 ft | 203 kts | 290° |
| 2026-04-22 03:27 | 33.81804 | -117.59070 | 7113 ft | 204 kts | 290° |
| 2026-04-22 03:27 | 33.82350 | -117.60644 | 6741 ft | 205 kts | 290° |
| 2026-04-22 03:28 | 33.82867 | -117.62229 | 6374 ft | 206 kts | 284° |
| 2026-04-22 03:28 | 33.83070 | -117.63937 | 6006 ft | 206 kts | 272° |
| 2026-04-22 03:28 | 33.83164 | -117.65641 | 5643 ft | 207 kts | 274° |
| 2026-04-22 03:28 | 33.83279 | -117.67364 | 5275 ft | 207 kts | 274° |
| 2026-04-22 03:29 | 33.83310 | -117.69103 | 4909 ft | 207 kts | 269° |
| 2026-04-22 03:29 | 33.83303 | -117.70826 | 4527 ft | 206 kts | 270° |
| 2026-04-22 03:29 | 33.83299 | -117.72514 | 3982 ft | 200 kts | 270° |
| 2026-04-22 03:29 | 33.83295 | -117.74146 | 3552 ft | 197 kts | 270° |
| 2026-04-22 03:30 | 33.83292 | -117.75799 | 3161 ft | 200 kts | 271° |
| 2026-04-22 03:30 | 33.83241 | -117.77456 | 2991 ft | 192 kts | 260° |
| 2026-04-22 03:30 | 33.82809 | -117.78887 | 2970 ft | 178 kts | 241° |
| 2026-04-22 03:30 | 33.82021 | -117.79997 | 2968 ft | 172 kts | 221° |
| 2026-04-22 03:31 | 33.80982 | -117.80669 | 2982 ft | 171 kts | 200° |
| 2026-04-22 03:31 | 33.79851 | -117.80907 | 2993 ft | 163 kts | 191° |
| 2026-04-22 03:31 | 33.78720 | -117.81105 | 2776 ft | 166 kts | 192° |
| 2026-04-22 03:31 | 33.77589 | -117.81392 | 2600 ft | 165 kts | 199° |
| 2026-04-22 03:32 | 33.76506 | -117.81897 | 2397 ft | 164 kts | 206° |
| 2026-04-22 03:32 | 33.75479 | -117.82381 | 2225 ft | 154 kts | 204° |
| 2026-04-22 03:32 | 33.74535 | -117.82830 | 1936 ft | 138 kts | 206° |
| 2026-04-22 03:32 | 33.73688 | -117.83256 | 1643 ft | 126 kts | 207° |
| 2026-04-22 03:33 | 33.72916 | -117.83658 | 1392 ft | 117 kts | 208° |
| 2026-04-22 03:33 | 33.72176 | -117.84069 | 1166 ft | 119 kts | 210° |
| 2026-04-22 03:33 | 33.71426 | -117.84513 | 945 ft | 120 kts | 210° |
| 2026-04-22 03:33 | 33.70690 | -117.84941 | 672 ft | 115 kts | 210° |
| 2026-04-22 03:34 | 33.70014 | -117.85382 | 527 ft | 110 kts | 211° |
| 2026-04-22 03:34 | 33.69297 | -117.85823 | 383 ft | 113 kts | 209° |
| 2026-04-22 03:34 | 33.68607 | -117.86245 | 223 ft | 109 kts | 211° |
| 2026-04-22 03:34 | 33.67930 | -117.86659 | 57 ft | 106 kts | 210° |
| 2026-04-22 03:35 | 33.67321 | -117.87046 | 52 ft | 88 kts | 208° |
| 2026-04-22 03:35 | 33.66951 | -117.87282 | 55 ft | 32 kts | 201° |
| 2026-04-22 03:35 | 33.66882 | -117.87311 | 55 ft | 10 kts | 219° |
| 2026-04-22 03:35 | 33.66820 | -117.87371 | 55 ft | 12 kts | 222° |
| 2026-04-22 03:36 | 33.66816 | -117.87441 | 55 ft | 9 kts | 300° |
| 2026-04-22 03:36 | 33.66870 | -117.87475 | 55 ft | 10 kts | 9° |
| 2026-04-22 03:36 | 33.66954 | -117.87425 | 55 ft | 14 kts | 27° |
| 2026-04-22 03:36 | 33.67048 | -117.87365 | 54 ft | 15 kts | 27° |
| 2026-04-22 03:37 | 33.67117 | -117.87324 | 55 ft | 5 kts | 359° |
| 2026-04-22 03:37 | 33.67151 | -117.87341 | 54 ft | 5 kts | 0° |
| 2026-04-22 03:37 | 33.67172 | -117.87375 | 54 ft | 3 kts | 245° |
| 2026-04-22 03:37 | 33.67168 | -117.87380 | 54 ft | 0 kts | 209° |